sensor_id;sensor_type;location;lat;lon;timestamp;pressure;altitude;pressure_sealevel;temperature;humidity
77975;BME280;67164;51.202;0.278;2023-11-21T00:00:34;101044.44;;;22.91;45.34
77975;BME280;67164;51.202;0.278;2023-11-21T00:03:00;101047.23;;;22.92;45.39
77975;BME280;67164;51.202;0.278;2023-11-21T00:05:26;101050.43;;;22.98;45.34
77975;BME280;67164;51.202;0.278;2023-11-21T00:07:52;101050.77;;;22.96;45.35
77975;BME280;67164;51.202;0.278;2023-11-21T00:10:18;101058.49;;;22.51;45.17
77975;BME280;67164;51.202;0.278;2023-11-21T00:12:43;101062.02;;;22.99;45.06
77975;BME280;67164;51.202;0.278;2023-11-21T00:15:10;101061.77;;;22.24;45.20
77975;BME280;67164;51.202;0.278;2023-11-21T00:17:35;101066.13;;;22.93;45.06
77975;BME280;67164;51.202;0.278;2023-11-21T00:20:01;101065.34;;;22.84;45.20
77975;BME280;67164;51.202;0.278;2023-11-21T00:22:26;101059.32;;;22.91;45.20
77975;BME280;67164;51.202;0.278;2023-11-21T00:24:52;101059.29;;;22.88;45.11
77975;BME280;67164;51.202;0.278;2023-11-21T00:27:18;101064.02;;;22.81;45.32
77975;BME280;67164;51.202;0.278;2023-11-21T00:29:44;101069.38;;;22.85;45.18
77975;BME280;67164;51.202;0.278;2023-11-21T00:32:09;101071.89;;;21.93;45.31
77975;BME280;67164;51.202;0.278;2023-11-21T00:34:35;101072.18;;;22.58;45.33
77975;BME280;67164;51.202;0.278;2023-11-21T00:37:01;101076.55;;;22.65;45.19
77975;BME280;67164;51.202;0.278;2023-11-21T00:39:27;101077.56;;;22.56;45.25
77975;BME280;67164;51.202;0.278;2023-11-21T00:41:53;101078.25;;;22.75;45.32
77975;BME280;67164;51.202;0.278;2023-11-21T00:44:18;101082.49;;;22.54;45.23
77975;BME280;67164;51.202;0.278;2023-11-21T00:46:44;101085.26;;;22.50;45.33
77975;BME280;67164;51.202;0.278;2023-11-21T00:49:10;101086.28;;;22.30;45.13
77975;BME280;67164;51.202;0.278;2023-11-21T00:51:36;101089.20;;;22.49;45.27
77975;BME280;67164;51.202;0.278;2023-11-21T00:54:02;101091.32;;;22.99;45.21
77975;BME280;67164;51.202;0.278;2023-11-21T00:56:28;101094.74;;;22.41;45.35
77975;BME280;67164;51.202;0.278;2023-11-21T00:58:53;101099.11;;;22.67;45.27
77975;BME280;67164;51.202;0.278;2023-11-21T01:01:19;101101.53;;;22.48;45.11
77975;BME280;67164;51.202;0.278;2023-11-21T01:03:46;101106.81;;;22.45;45.20
77975;BME280;67164;51.202;0.278;2023-11-21T01:06:10;101115.19;;;22.52;45.05
77975;BME280;67164;51.202;0.278;2023-11-21T01:08:36;101118.89;;;22.50;45.04
77975;BME280;67164;51.202;0.278;2023-11-21T01:11:02;101119.74;;;22.50;45.12
77975;BME280;67164;51.202;0.278;2023-11-21T01:13:28;101121.04;;;22.51;45.07
77975;BME280;67164;51.202;0.278;2023-11-21T01:15:54;101125.26;;;22.57;44.90
77975;BME280;67164;51.202;0.278;2023-11-21T01:18:19;101126.12;;;22.47;44.96
77975;BME280;67164;51.202;0.278;2023-11-21T01:20:45;101130.48;;;22.72;44.89
77975;BME280;67164;51.202;0.278;2023-11-21T01:23:11;101129.40;;;22.16;45.01
77975;BME280;67164;51.202;0.278;2023-11-21T01:25:37;101134.14;;;22.45;44.88
77975;BME280;67164;51.202;0.278;2023-11-21T01:28:03;101132.80;;;22.41;44.97
77975;BME280;67164;51.202;0.278;2023-11-21T01:30:28;101139.01;;;22.64;44.91
77975;BME280;67164;51.202;0.278;2023-11-21T01:32:54;101143.84;;;22.44;44.85
77975;BME280;67164;51.202;0.278;2023-11-21T01:35:20;101145.48;;;22.42;44.81
77975;BME280;67164;51.202;0.278;2023-11-21T01:37:46;101144.87;;;22.65;44.79
77975;BME280;67164;51.202;0.278;2023-11-21T01:40:12;101145.46;;;22.18;44.75
77975;BME280;67164;51.202;0.278;2023-11-21T01:42:37;101147.99;;;22.65;44.68
77975;BME280;67164;51.202;0.278;2023-11-21T01:45:04;101148.88;;;22.62;44.72
77975;BME280;67164;51.202;0.278;2023-11-21T01:47:29;101151.59;;;22.65;44.78
77975;BME280;67164;51.202;0.278;2023-11-21T01:49:55;101151.04;;;22.42;44.67
77975;BME280;67164;51.202;0.278;2023-11-21T01:52:21;101154.21;;;22.49;44.59
77975;BME280;67164;51.202;0.278;2023-11-21T01:54:46;101155.38;;;22.47;44.59
77975;BME280;67164;51.202;0.278;2023-11-21T01:57:12;101158.48;;;22.49;44.41
77975;BME280;67164;51.202;0.278;2023-11-21T01:59:38;101163.53;;;22.36;44.68
77975;BME280;67164;51.202;0.278;2023-11-21T02:02:04;101165.77;;;22.34;44.62
77975;BME280;67164;51.202;0.278;2023-11-21T02:04:29;101168.52;;;22.25;44.70
77975;BME280;67164;51.202;0.278;2023-11-21T02:06:55;101169.71;;;22.78;44.76
77975;BME280;67164;51.202;0.278;2023-11-21T02:09:25;101174.08;;;22.22;44.82
77975;BME280;67164;51.202;0.278;2023-11-21T02:11:47;101169.40;;;22.86;44.59
77975;BME280;67164;51.202;0.278;2023-11-21T02:14:12;101173.29;;;22.40;44.58
77975;BME280;67164;51.202;0.278;2023-11-21T02:16:38;101178.19;;;22.29;44.82
77975;BME280;67164;51.202;0.278;2023-11-21T02:19:08;101181.45;;;22.56;44.77
77975;BME280;67164;51.202;0.278;2023-11-21T02:21:30;101185.87;;;22.31;44.61
77975;BME280;67164;51.202;0.278;2023-11-21T02:23:56;101193.15;;;22.63;44.94
77975;BME280;67164;51.202;0.278;2023-11-21T02:26:21;101195.64;;;22.80;44.77
77975;BME280;67164;51.202;0.278;2023-11-21T02:28:47;101192.28;;;22.54;44.74
77975;BME280;67164;51.202;0.278;2023-11-21T02:31:13;101196.77;;;22.22;44.69
77975;BME280;67164;51.202;0.278;2023-11-21T02:33:39;101195.85;;;22.71;44.78
77975;BME280;67164;51.202;0.278;2023-11-21T02:36:06;101198.04;;;22.59;44.63
77975;BME280;67164;51.202;0.278;2023-11-21T02:38:30;101207.55;;;22.39;44.69
77975;BME280;67164;51.202;0.278;2023-11-21T02:40:57;101210.08;;;22.56;44.64
77975;BME280;67164;51.202;0.278;2023-11-21T02:43:22;101211.51;;;22.52;44.62
77975;BME280;67164;51.202;0.278;2023-11-21T02:45:48;101211.53;;;22.50;44.65
77975;BME280;67164;51.202;0.278;2023-11-21T02:48:13;101210.72;;;22.20;44.71
77975;BME280;67164;51.202;0.278;2023-11-21T02:50:39;101214.93;;;22.49;44.57
77975;BME280;67164;51.202;0.278;2023-11-21T02:53:05;101216.47;;;22.88;44.44
77975;BME280;67164;51.202;0.278;2023-11-21T02:55:31;101219.81;;;22.42;44.43
77975;BME280;67164;51.202;0.278;2023-11-21T02:57:56;101220.15;;;22.82;44.53
77975;BME280;67164;51.202;0.278;2023-11-21T03:00:22;101220.26;;;22.76;44.55
77975;BME280;67164;51.202;0.278;2023-11-21T03:02:48;101220.40;;;22.68;44.33
77975;BME280;67164;51.202;0.278;2023-11-21T03:05:14;101223.50;;;22.40;44.30
77975;BME280;67164;51.202;0.278;2023-11-21T03:07:40;101226.35;;;22.94;44.29
77975;BME280;67164;51.202;0.278;2023-11-21T03:10:07;101226.66;;;23.01;44.23
77975;BME280;67164;51.202;0.278;2023-11-21T03:12:31;101233.33;;;23.04;44.16
77975;BME280;67164;51.202;0.278;2023-11-21T03:14:57;101234.93;;;22.81;43.98
77975;BME280;67164;51.202;0.278;2023-11-21T03:17:23;101240.72;;;22.58;43.90
77975;BME280;67164;51.202;0.278;2023-11-21T03:19:48;101240.14;;;22.62;43.92
77975;BME280;67164;51.202;0.278;2023-11-21T03:22:14;101246.01;;;22.69;44.16
77975;BME280;67164;51.202;0.278;2023-11-21T03:24:40;101246.66;;;23.10;43.97
77975;BME280;67164;51.202;0.278;2023-11-21T03:27:06;101251.71;;;22.76;44.09
77975;BME280;67164;51.202;0.278;2023-11-21T03:29:31;101254.98;;;22.73;44.13
77975;BME280;67164;51.202;0.278;2023-11-21T03:31:57;101259.53;;;22.80;44.04
77975;BME280;67164;51.202;0.278;2023-11-21T03:34:24;101258.08;;;23.10;43.94
77975;BME280;67164;51.202;0.278;2023-11-21T03:36:49;101266.50;;;22.73;43.94
77975;BME280;67164;51.202;0.278;2023-11-21T03:39:14;101263.33;;;22.88;43.77
77975;BME280;67164;51.202;0.278;2023-11-21T03:41:40;101268.25;;;22.69;44.06
77975;BME280;67164;51.202;0.278;2023-11-21T03:44:07;101272.16;;;22.81;43.91
77975;BME280;67164;51.202;0.278;2023-11-21T03:46:32;101277.37;;;22.77;43.95
77975;BME280;67164;51.202;0.278;2023-11-21T03:48:57;101280.08;;;22.99;43.95
77975;BME280;67164;51.202;0.278;2023-11-21T03:51:23;101278.66;;;22.72;44.08
77975;BME280;67164;51.202;0.278;2023-11-21T03:53:49;101287.23;;;23.05;43.87
77975;BME280;67164;51.202;0.278;2023-11-21T03:56:15;101287.38;;;22.66;43.76
77975;BME280;67164;51.202;0.278;2023-11-21T03:58:41;101292.92;;;23.06;43.93
77975;BME280;67164;51.202;0.278;2023-11-21T04:01:07;101292.99;;;22.82;43.77
77975;BME280;67164;51.202;0.278;2023-11-21T04:03:32;101303.27;;;22.78;43.91
77975;BME280;67164;51.202;0.278;2023-11-21T04:05:58;101302.63;;;23.16;43.82
77975;BME280;67164;51.202;0.278;2023-11-21T04:08:24;101303.79;;;23.07;43.86
77975;BME280;67164;51.202;0.278;2023-11-21T04:10:49;101306.22;;;23.09;43.78
77975;BME280;67164;51.202;0.278;2023-11-21T04:13:15;101310.40;;;22.86;43.78
77975;BME280;67164;51.202;0.278;2023-11-21T04:15:41;101311.02;;;23.05;43.89
77975;BME280;67164;51.202;0.278;2023-11-21T04:18:07;101314.50;;;22.55;43.82
77975;BME280;67164;51.202;0.278;2023-11-21T04:20:33;101317.27;;;23.00;43.68
77975;BME280;67164;51.202;0.278;2023-11-21T04:22:58;101324.00;;;22.95;44.09
77975;BME280;67164;51.202;0.278;2023-11-21T04:25:24;101323.31;;;22.74;44.00
77975;BME280;67164;51.202;0.278;2023-11-21T04:27:50;101323.76;;;22.72;44.13
77975;BME280;67164;51.202;0.278;2023-11-21T04:30:16;101322.74;;;22.43;43.48
77975;BME280;67164;51.202;0.278;2023-11-21T04:32:42;101331.98;;;22.90;43.71
77975;BME280;67164;51.202;0.278;2023-11-21T04:35:08;101337.36;;;22.38;43.65
77975;BME280;67164;51.202;0.278;2023-11-21T04:37:33;101337.50;;;22.96;43.42
77975;BME280;67164;51.202;0.278;2023-11-21T04:39:59;101341.44;;;22.97;43.62
77975;BME280;67164;51.202;0.278;2023-11-21T04:42:24;101344.64;;;22.90;43.76
77975;BME280;67164;51.202;0.278;2023-11-21T04:44:50;101346.60;;;22.89;43.75
77975;BME280;67164;51.202;0.278;2023-11-21T04:47:16;101346.82;;;22.82;43.49
77975;BME280;67164;51.202;0.278;2023-11-21T04:49:42;101348.82;;;22.77;43.68
77975;BME280;67164;51.202;0.278;2023-11-21T04:52:08;101354.49;;;22.79;43.62
77975;BME280;67164;51.202;0.278;2023-11-21T04:54:34;101360.70;;;22.76;43.45
77975;BME280;67164;51.202;0.278;2023-11-21T04:56:59;101363.30;;;22.73;43.68
77975;BME280;67164;51.202;0.278;2023-11-21T04:59:25;101370.72;;;22.79;43.73
77975;BME280;67164;51.202;0.278;2023-11-21T05:01:51;101371.85;;;22.69;43.72
77975;BME280;67164;51.202;0.278;2023-11-21T05:04:16;101373.29;;;22.78;43.63
77975;BME280;67164;51.202;0.278;2023-11-21T05:06:42;101377.67;;;22.73;43.49
77975;BME280;67164;51.202;0.278;2023-11-21T05:09:09;101382.84;;;22.12;43.86
77975;BME280;67164;51.202;0.278;2023-11-21T05:11:34;101385.37;;;22.71;43.54
77975;BME280;67164;51.202;0.278;2023-11-21T05:14:00;101388.84;;;22.48;43.55
77975;BME280;67164;51.202;0.278;2023-11-21T05:16:25;101393.85;;;22.57;43.69
77975;BME280;67164;51.202;0.278;2023-11-21T05:18:51;101404.32;;;22.57;43.58
77975;BME280;67164;51.202;0.278;2023-11-21T05:21:17;101406.60;;;22.64;43.72
77975;BME280;67164;51.202;0.278;2023-11-21T05:23:43;101410.41;;;22.63;43.51
77975;BME280;67164;51.202;0.278;2023-11-21T05:26:09;101411.05;;;22.04;43.54
77975;BME280;67164;51.202;0.278;2023-11-21T05:28:34;101417.47;;;22.61;43.60
77975;BME280;67164;51.202;0.278;2023-11-21T05:31:00;101420.81;;;22.71;43.55
77975;BME280;67164;51.202;0.278;2023-11-21T05:33:26;101426.05;;;22.69;43.83
77975;BME280;67164;51.202;0.278;2023-11-21T05:35:52;101424.14;;;22.76;43.51
77975;BME280;67164;51.202;0.278;2023-11-21T05:38:17;101420.44;;;22.28;43.48
77975;BME280;67164;51.202;0.278;2023-11-21T05:40:43;101418.79;;;22.80;43.67
77975;BME280;67164;51.202;0.278;2023-11-21T05:43:09;101417.16;;;22.02;43.60
77975;BME280;67164;51.202;0.278;2023-11-21T05:45:35;101422.18;;;22.46;43.55
77975;BME280;67164;51.202;0.278;2023-11-21T05:48:01;101419.32;;;22.45;43.59
77975;BME280;67164;51.202;0.278;2023-11-21T05:50:27;101426.78;;;22.44;43.56
77975;BME280;67164;51.202;0.278;2023-11-21T05:52:52;101424.72;;;22.44;43.47
77975;BME280;67164;51.202;0.278;2023-11-21T05:55:18;101426.98;;;22.32;43.60
77975;BME280;67164;51.202;0.278;2023-11-21T05:57:44;101426.16;;;22.76;43.55
77975;BME280;67164;51.202;0.278;2023-11-21T06:00:12;101427.89;;;21.78;43.66
77975;BME280;67164;51.202;0.278;2023-11-21T06:02:35;101429.76;;;22.69;43.48
77975;BME280;67164;51.202;0.278;2023-11-21T06:05:01;101434.34;;;22.58;43.57
77975;BME280;67164;51.202;0.278;2023-11-21T06:07:27;101433.69;;;22.04;43.87
77975;BME280;67164;51.202;0.278;2023-11-21T06:09:53;101445.11;;;22.21;43.50
77975;BME280;67164;51.202;0.278;2023-11-21T06:12:19;101448.91;;;22.31;43.64
77975;BME280;67164;51.202;0.278;2023-11-21T06:14:44;101443.62;;;22.29;43.86
77975;BME280;67164;51.202;0.278;2023-11-21T06:17:10;101447.11;;;22.01;43.49
77975;BME280;67164;51.202;0.278;2023-11-21T06:19:36;101458.88;;;22.63;43.59
77975;BME280;67164;51.202;0.278;2023-11-21T06:22:02;101464.44;;;22.20;43.71
77975;BME280;67164;51.202;0.278;2023-11-21T06:24:28;101467.40;;;22.11;43.41
77975;BME280;67164;51.202;0.278;2023-11-21T06:26:53;101473.13;;;22.28;43.66
77975;BME280;67164;51.202;0.278;2023-11-21T06:29:19;101470.52;;;22.04;43.70
77975;BME280;67164;51.202;0.278;2023-11-21T06:31:45;101475.70;;;22.22;43.67
77975;BME280;67164;51.202;0.278;2023-11-21T06:34:11;101477.15;;;21.93;43.68
77975;BME280;67164;51.202;0.278;2023-11-21T06:36:37;101479.95;;;22.38;43.47
77975;BME280;67164;51.202;0.278;2023-11-21T06:39:03;101481.11;;;22.14;43.80
77975;BME280;67164;51.202;0.278;2023-11-21T06:41:28;101490.18;;;21.91;43.80
77975;BME280;67164;51.202;0.278;2023-11-21T06:43:54;101497.14;;;22.36;43.42
77975;BME280;67164;51.202;0.278;2023-11-21T06:46:20;101503.64;;;22.29;43.64
77975;BME280;67164;51.202;0.278;2023-11-21T06:48:46;101510.51;;;21.87;43.66
77975;BME280;67164;51.202;0.278;2023-11-21T06:51:11;101514.60;;;21.68;43.51
77975;BME280;67164;51.202;0.278;2023-11-21T06:53:37;101520.18;;;22.29;43.45
77975;BME280;67164;51.202;0.278;2023-11-21T06:56:04;101520.55;;;22.05;43.58
77975;BME280;67164;51.202;0.278;2023-11-21T06:58:29;101526.93;;;21.86;43.43
77975;BME280;67164;51.202;0.278;2023-11-21T07:00:55;101534.76;;;22.25;43.30
77975;BME280;67164;51.202;0.278;2023-11-21T07:03:20;101540.82;;;21.94;43.55
77975;BME280;67164;51.202;0.278;2023-11-21T07:05:46;101543.20;;;22.47;43.28
77975;BME280;67164;51.202;0.278;2023-11-21T07:08:12;101550.37;;;21.93;43.51
77975;BME280;67164;51.202;0.278;2023-11-21T07:10:38;101550.81;;;22.23;43.27
77975;BME280;67164;51.202;0.278;2023-11-21T07:13:04;101567.57;;;22.06;43.31
77975;BME280;67164;51.202;0.278;2023-11-21T07:15:29;101568.38;;;21.88;43.55
77975;BME280;67164;51.202;0.278;2023-11-21T07:17:55;101575.10;;;21.93;43.44
77975;BME280;67164;51.202;0.278;2023-11-21T07:20:21;101582.27;;;22.04;43.51
77975;BME280;67164;51.202;0.278;2023-11-21T07:22:47;101579.76;;;21.88;43.37
77975;BME280;67164;51.202;0.278;2023-11-21T07:25:12;101589.51;;;21.83;43.59
77975;BME280;67164;51.202;0.278;2023-11-21T07:27:38;101590.56;;;22.13;43.32
77975;BME280;67164;51.202;0.278;2023-11-21T07:30:06;101595.00;;;22.05;43.48
77975;BME280;67164;51.202;0.278;2023-11-21T07:32:30;101601.04;;;21.85;43.41
77975;BME280;67164;51.202;0.278;2023-11-21T07:34:56;101607.15;;;21.99;43.43
77975;BME280;67164;51.202;0.278;2023-11-21T07:37:21;101609.25;;;21.72;43.48
77975;BME280;67164;51.202;0.278;2023-11-21T07:39:47;101620.88;;;22.26;43.41
77975;BME280;67164;51.202;0.278;2023-11-21T07:42:13;101625.42;;;22.31;43.15
77975;BME280;67164;51.202;0.278;2023-11-21T07:44:39;101626.75;;;22.29;43.15
77975;BME280;67164;51.202;0.278;2023-11-21T07:47:05;101629.18;;;21.93;43.93
77975;BME280;67164;51.202;0.278;2023-11-21T07:49:30;101633.33;;;21.72;44.57
77975;BME280;67164;51.202;0.278;2023-11-21T07:51:56;101641.59;;;22.14;44.63
77975;BME280;67164;51.202;0.278;2023-11-21T07:54:22;101642.85;;;22.06;44.95
77975;BME280;67164;51.202;0.278;2023-11-21T07:56:48;101649.18;;;21.91;44.91
77975;BME280;67164;51.202;0.278;2023-11-21T07:59:13;101657.60;;;22.10;45.23
77975;BME280;67164;51.202;0.278;2023-11-21T08:01:39;101658.89;;;21.96;45.83
77975;BME280;67164;51.202;0.278;2023-11-21T08:04:06;101661.03;;;21.88;46.64
77975;BME280;67164;51.202;0.278;2023-11-21T08:06:31;101662.46;;;22.08;46.95
77975;BME280;67164;51.202;0.278;2023-11-21T08:08:57;101665.77;;;21.94;47.46
77975;BME280;67164;51.202;0.278;2023-11-21T08:11:22;101672.30;;;21.81;47.59
77975;BME280;67164;51.202;0.278;2023-11-21T08:13:48;101676.62;;;21.93;47.19
77975;BME280;67164;51.202;0.278;2023-11-21T08:16:15;101685.07;;;21.52;47.55
77975;BME280;67164;51.202;0.278;2023-11-21T08:18:40;101688.21;;;21.78;47.23
77975;BME280;67164;51.202;0.278;2023-11-21T08:21:06;101691.74;;;22.01;47.12
77975;BME280;67164;51.202;0.278;2023-11-21T08:23:31;101695.61;;;21.73;47.81
77975;BME280;67164;51.202;0.278;2023-11-21T08:25:57;101703.23;;;21.89;47.02
77975;BME280;67164;51.202;0.278;2023-11-21T08:28:28;101704.71;;;21.70;47.07
77975;BME280;67164;51.202;0.278;2023-11-21T08:30:49;101710.98;;;21.67;46.97
77975;BME280;67164;51.202;0.278;2023-11-21T08:33:15;101712.66;;;21.74;46.84
77975;BME280;67164;51.202;0.278;2023-11-21T08:35:40;101711.22;;;22.09;46.52
77975;BME280;67164;51.202;0.278;2023-11-21T08:38:07;101716.33;;;21.78;46.76
77975;BME280;67164;51.202;0.278;2023-11-21T08:40:32;101719.65;;;22.09;46.10
77975;BME280;67164;51.202;0.278;2023-11-21T08:42:58;101722.79;;;22.02;46.18
77975;BME280;67164;51.202;0.278;2023-11-21T08:45:24;101725.48;;;21.85;46.53
77975;BME280;67164;51.202;0.278;2023-11-21T08:47:49;101725.29;;;21.98;46.51
77975;BME280;67164;51.202;0.278;2023-11-21T08:50:15;101726.52;;;21.95;46.72
77975;BME280;67164;51.202;0.278;2023-11-21T08:52:42;101727.91;;;22.10;46.84
77975;BME280;67164;51.202;0.278;2023-11-21T08:55:08;101734.26;;;21.97;46.85
77975;BME280;67164;51.202;0.278;2023-11-21T08:57:32;101736.66;;;22.20;46.91
77975;BME280;67164;51.202;0.278;2023-11-21T08:59:58;101736.32;;;22.10;46.76
77975;BME280;67164;51.202;0.278;2023-11-21T09:02:26;101740.88;;;21.99;46.95
77975;BME280;67164;51.202;0.278;2023-11-21T09:04:50;101740.57;;;22.10;47.00
77975;BME280;67164;51.202;0.278;2023-11-21T09:07:16;101748.31;;;22.25;46.72
77975;BME280;67164;51.202;0.278;2023-11-21T09:09:41;101752.66;;;22.30;46.64
77975;BME280;67164;51.202;0.278;2023-11-21T09:12:08;101750.21;;;21.89;46.82
77975;BME280;67164;51.202;0.278;2023-11-21T09:14:33;101754.04;;;22.42;46.33
77975;BME280;67164;51.202;0.278;2023-11-21T09:16:59;101755.64;;;22.54;46.08
77975;BME280;67164;51.202;0.278;2023-11-21T09:19:24;101757.58;;;22.20;45.84
77975;BME280;67164;51.202;0.278;2023-11-21T09:21:50;101767.14;;;22.84;45.51
77975;BME280;67164;51.202;0.278;2023-11-21T09:24:16;101767.05;;;22.65;45.37
77975;BME280;67164;51.202;0.278;2023-11-21T09:26:42;101772.65;;;22.51;45.12
77975;BME280;67164;51.202;0.278;2023-11-21T09:29:08;101773.74;;;22.16;45.61
77975;BME280;67164;51.202;0.278;2023-11-21T09:31:33;101773.76;;;22.72;45.64
77975;BME280;67164;51.202;0.278;2023-11-21T09:33:59;101773.57;;;22.46;45.69
77975;BME280;67164;51.202;0.278;2023-11-21T09:36:25;101778.98;;;22.48;45.33
77975;BME280;67164;51.202;0.278;2023-11-21T09:38:51;101780.28;;;22.54;45.55
77975;BME280;67164;51.202;0.278;2023-11-21T09:41:23;101785.16;;;22.39;45.48
77975;BME280;67164;51.202;0.278;2023-11-21T09:43:44;101790.19;;;22.42;45.50
77975;BME280;67164;51.202;0.278;2023-11-21T09:46:09;101790.65;;;22.43;45.53
77975;BME280;67164;51.202;0.278;2023-11-21T09:48:35;101792.74;;;22.50;45.46
77975;BME280;67164;51.202;0.278;2023-11-21T09:51:00;101798.04;;;22.90;45.53
77975;BME280;67164;51.202;0.278;2023-11-21T09:53:27;101800.38;;;22.48;45.43
77975;BME280;67164;51.202;0.278;2023-11-21T09:55:52;101801.67;;;22.45;45.41
77975;BME280;67164;51.202;0.278;2023-11-21T09:58:18;101809.15;;;22.74;45.29
77975;BME280;67164;51.202;0.278;2023-11-21T10:00:44;101813.13;;;23.06;45.16
77975;BME280;67164;51.202;0.278;2023-11-21T10:03:09;101813.42;;;22.25;45.27
77975;BME280;67164;51.202;0.278;2023-11-21T10:05:35;101819.56;;;22.81;45.14
77975;BME280;67164;51.202;0.278;2023-11-21T10:08:00;101821.13;;;23.05;45.13
77975;BME280;67164;51.202;0.278;2023-11-21T10:10:27;101825.11;;;22.55;45.16
77975;BME280;67164;51.202;0.278;2023-11-21T10:12:56;101826.88;;;22.91;44.96
77975;BME280;67164;51.202;0.278;2023-11-21T10:15:18;101826.34;;;22.68;44.92
77975;BME280;67164;51.202;0.278;2023-11-21T10:17:44;101830.81;;;22.73;44.84
77975;BME280;67164;51.202;0.278;2023-11-21T10:20:11;101834.07;;;22.48;44.83
77975;BME280;67164;51.202;0.278;2023-11-21T10:22:35;101835.77;;;23.05;44.74
77975;BME280;67164;51.202;0.278;2023-11-21T10:25:01;101832.53;;;22.75;44.84
77975;BME280;67164;51.202;0.278;2023-11-21T10:27:27;101835.90;;;22.92;44.84
77975;BME280;67164;51.202;0.278;2023-11-21T10:29:52;101837.21;;;22.73;44.83
77975;BME280;67164;51.202;0.278;2023-11-21T10:32:18;101848.56;;;22.50;44.74
77975;BME280;67164;51.202;0.278;2023-11-21T10:37:12;101852.60;;;22.57;44.75
77975;BME280;67164;51.202;0.278;2023-11-21T10:39:36;101855.40;;;23.10;44.64
77975;BME280;67164;51.202;0.278;2023-11-21T10:42:01;101859.83;;;23.04;44.83
77975;BME280;67164;51.202;0.278;2023-11-21T10:44:27;101857.60;;;22.86;44.80
77975;BME280;67164;51.202;0.278;2023-11-21T10:46:54;101858.27;;;22.83;44.81
77975;BME280;67164;51.202;0.278;2023-11-21T10:49:20;101858.50;;;23.16;44.70
77975;BME280;67164;51.202;0.278;2023-11-21T10:51:44;101860.24;;;22.89;44.65
77975;BME280;67164;51.202;0.278;2023-11-21T10:54:10;101862.15;;;22.50;44.61
77975;BME280;67164;51.202;0.278;2023-11-21T10:56:36;101858.37;;;22.95;44.59
77975;BME280;67164;51.202;0.278;2023-11-21T10:59:02;101848.48;;;22.78;44.85
77975;BME280;67164;51.202;0.278;2023-11-21T11:01:28;101850.88;;;22.71;44.97
77975;BME280;67164;51.202;0.278;2023-11-21T11:03:53;101854.33;;;23.11;45.13
77975;BME280;67164;51.202;0.278;2023-11-21T11:06:19;101855.63;;;22.61;45.19
77975;BME280;67164;51.202;0.278;2023-11-21T11:08:46;101856.44;;;22.64;45.19
77975;BME280;67164;51.202;0.278;2023-11-21T11:11:11;101855.07;;;22.07;45.30
77975;BME280;67164;51.202;0.278;2023-11-21T11:13:37;101853.24;;;22.59;45.12
77975;BME280;67164;51.202;0.278;2023-11-21T11:16:03;101846.84;;;23.06;45.23
77975;BME280;67164;51.202;0.278;2023-11-21T11:18:28;101850.23;;;22.79;45.30
77975;BME280;67164;51.202;0.278;2023-11-21T11:20:54;101850.23;;;22.53;45.33
77975;BME280;67164;51.202;0.278;2023-11-21T11:23:44;101854.08;;;22.59;45.25
77975;BME280;67164;51.202;0.278;2023-11-21T11:25:55;101858.83;;;22.66;45.15
77975;BME280;67164;51.202;0.278;2023-11-21T11:28:14;101859.53;;;22.63;45.17
77975;BME280;67164;51.202;0.278;2023-11-21T11:30:44;101860.23;;;22.68;45.14
77975;BME280;67164;51.202;0.278;2023-11-21T11:33:09;101860.11;;;22.66;45.10
77975;BME280;67164;51.202;0.278;2023-11-21T11:35:41;101860.84;;;22.65;45.02
77975;BME280;67164;51.202;0.278;2023-11-21T11:37:54;101868.90;;;22.79;44.97
77975;BME280;67164;51.202;0.278;2023-11-21T11:40:20;101868.40;;;22.84;44.90
77975;BME280;67164;51.202;0.278;2023-11-21T11:42:57;101872.42;;;22.70;45.08
77975;BME280;67164;51.202;0.278;2023-11-21T11:45:18;101871.54;;;22.87;44.84
77975;BME280;67164;51.202;0.278;2023-11-21T11:47:37;101871.32;;;23.02;45.00
77975;BME280;67164;51.202;0.278;2023-11-21T11:50:05;101870.52;;;22.85;44.93
77975;BME280;67164;51.202;0.278;2023-11-21T11:52:37;101869.63;;;22.59;44.76
77975;BME280;67164;51.202;0.278;2023-11-21T11:54:55;101872.25;;;22.81;44.97
77975;BME280;67164;51.202;0.278;2023-11-21T11:57:24;101871.76;;;22.84;44.91
77975;BME280;67164;51.202;0.278;2023-11-21T12:02:13;101872.34;;;22.48;44.89
77975;BME280;67164;51.202;0.278;2023-11-21T12:04:41;101872.92;;;22.73;44.81
77975;BME280;67164;51.202;0.278;2023-11-21T12:07:04;101879.87;;;22.81;44.83
77975;BME280;67164;51.202;0.278;2023-11-21T12:09:31;101880.09;;;22.86;44.79
77975;BME280;67164;51.202;0.278;2023-11-21T12:11:56;101877.25;;;22.84;44.77
77975;BME280;67164;51.202;0.278;2023-11-21T12:14:21;101885.30;;;22.90;44.66
77975;BME280;67164;51.202;0.278;2023-11-21T12:16:47;101890.09;;;22.90;44.77
77975;BME280;67164;51.202;0.278;2023-11-21T12:19:13;101892.78;;;22.96;44.61
77975;BME280;67164;51.202;0.278;2023-11-21T12:21:38;101892.30;;;22.96;44.62
77975;BME280;67164;51.202;0.278;2023-11-21T12:24:06;101897.86;;;23.06;44.53
77975;BME280;67164;51.202;0.278;2023-11-21T12:26:30;101902.60;;;23.03;44.60
77975;BME280;67164;51.202;0.278;2023-11-21T12:28:56;101911.95;;;22.93;44.75
77975;BME280;67164;51.202;0.278;2023-11-21T12:31:22;101911.75;;;22.99;44.59
77975;BME280;67164;51.202;0.278;2023-11-21T12:33:47;101914.83;;;22.99;44.52
77975;BME280;67164;51.202;0.278;2023-11-21T12:36:13;101915.55;;;22.81;44.56
77975;BME280;67164;51.202;0.278;2023-11-21T12:38:39;101915.87;;;22.98;44.34
77975;BME280;67164;51.202;0.278;2023-11-21T12:41:05;101921.70;;;22.91;44.33
77975;BME280;67164;51.202;0.278;2023-11-21T12:43:31;101933.11;;;23.21;44.31
77975;BME280;67164;51.202;0.278;2023-11-21T12:46:04;101936.31;;;22.96;44.35